Time;durP1;ratioP1;P1;durP2;ratioP2;P2;SDS_P1;SDS_P2;PMS_P1;PMS_P2;Temp;Humidity;BMP_temperature;BMP_pressure;BME280_temperature;BME280_humidity;BME280_pressure;Samples;Min_cycle;Max_cycle;Signal;HPM_P1;HPM_P2
2021/12/07 00:00:29;;;;;;;13.10;9.57;;;2.90;99.90;;;;;;4997437;28;20054;-69
2021/12/07 00:02:55;;;;;;;15.43;9.95;;;3.40;99.90;;;;;;5013799;28;20062;-70
2021/12/07 00:05:22;;;;;;;13.70;9.68;;;3.60;99.90;;;;;;5013764;28;20405;-71
2021/12/07 00:07:48;;;;;;;15.52;9.25;;;3.70;99.90;;;;;;5013784;28;20061;-69
2021/12/07 00:10:15;;;;;;;13.45;9.00;;;3.10;99.90;;;;;;5013608;28;20050;-71
2021/12/07 00:12:44;;;;;;;12.90;8.90;;;3.80;99.90;;;;;;5013657;28;20112;-70
2021/12/07 00:15:12;;;;;;;14.45;9.57;;;3.50;99.90;;;;;;5013502;28;20049;-71
2021/12/07 00:17:39;;;;;;;13.43;9.05;;;3.60;99.90;;;;;;4997483;28;20142;-70
2021/12/07 00:20:10;;;;;;;14.63;9.00;;;2.70;99.90;;;;;;5013480;28;20049;-70
2021/12/07 00:22:36;;;;;;;14.77;9.40;;;2.70;99.90;;;;;;5008291;28;20409;-70
2021/12/07 00:25:03;;;;;;;15.73;9.10;;;3.80;99.90;;;;;;5055361;28;20059;-71
2021/12/07 00:27:29;;;;;;;17.33;9.32;;;2.70;99.90;;;;;;5054161;28;20052;-71
2021/12/07 00:29:55;;;;;;;15.82;9.63;;;2.70;99.90;;;;;;5055119;28;20051;-71
2021/12/07 00:32:37;;;;;;;17.48;10.20;;;3.20;99.90;;;;;;5055389;28;20037;-73
2021/12/07 00:37:41;;;;;;;;;;;2.60;99.90;;;;;;5055545;28;20136;-71
2021/12/07 00:40:09;;;;;;;16.63;9.55;;;2.60;99.90;;;;;;5053734;28;19971;-71
2021/12/07 00:42:36;;;;;;;16.55;9.52;;;2.60;99.90;;;;;;5054239;28;20049;-73
2021/12/07 00:45:04;;;;;;;17.30;9.55;;;2.50;99.90;;;;;;5054907;28;20052;-70
2021/12/07 00:47:29;;;;;;;16.25;9.93;;;2.50;99.90;;;;;;5087587;28;20127;-71
2021/12/07 00:49:56;;;;;;;14.07;9.30;;;2.70;99.90;;;;;;5054737;28;20473;-71
2021/12/07 00:52:21;;;;;;;16.67;10.35;;;3.20;99.90;;;;;;5053686;28;20090;-71
2021/12/07 00:54:47;;;;;;;18.85;10.40;;;4.30;99.90;;;;;;5054571;28;20190;-74
2021/12/07 00:57:13;;;;;;;16.85;10.20;;;4.10;99.90;;;;;;5054878;28;20044;-71
2021/12/07 00:59:39;;;;;;;16.73;10.43;;;2.60;99.90;;;;;;5054884;28;20458;-71
2021/12/07 01:02:05;;;;;;;17.63;10.48;;;2.40;99.90;;;;;;5054776;28;20056;-70
2021/12/07 01:04:31;;;;;;;18.02;10.63;;;2.50;99.90;;;;;;5053569;28;20053;-71
2021/12/07 01:07:05;;;;;;;16.80;9.93;;;2.40;99.90;;;;;;5054598;28;20162;-71
2021/12/07 01:09:41;;;;;;;18.00;10.35;;;2.40;99.90;;;;;;5054380;28;20041;-71
2021/12/07 01:25:54;;;;;;;18.80;11.00;;;2.20;99.90;;;;;;5054227;28;20059;-71
2021/12/07 01:28:29;;;;;;;16.67;9.82;;;2.10;99.90;;;;;;5054037;28;20448;-70
2021/12/07 01:31:02;;;;;;;14.63;9.13;;;3.80;99.90;;;;;;5054096;28;20047;-71
2021/12/07 01:33:54;;;;;;;16.88;9.77;;;3.80;99.90;;;;;;5054153;28;20110;-71
2021/12/07 02:00:03;;;;;;;15.32;10.30;;;2.20;99.90;;;;;;5053439;28;20092;-73
2021/12/07 02:02:29;;;;;;;15.55;10.35;;;2.00;99.90;;;;;;5053619;28;20036;-70
2021/12/07 02:04:56;;;;;;;18.05;9.77;;;2.00;99.90;;;;;;5053520;28;20072;-73
2021/12/07 02:07:23;;;;;;;15.13;10.30;;;3.60;99.90;;;;;;5053506;28;20536;-71
2021/12/07 02:09:54;;;;;;;16.88;9.93;;;3.30;99.90;;;;;;5053367;28;20045;-71
2021/12/07 02:12:21;;;;;;;18.17;10.82;;;1.90;99.90;;;;;;5053374;28;20110;-71
2021/12/07 02:14:46;;;;;;;16.52;10.20;;;2.00;99.90;;;;;;5052092;28;20041;-71
2021/12/07 02:17:15;;;;;;;16.08;9.52;;;2.10;99.90;;;;;;5052411;28;20488;-71
2021/12/07 02:19:41;;;;;;;18.17;10.98;;;3.80;99.90;;;;;;5053281;28;20041;-71
2021/12/07 02:22:09;;;;;;;18.38;10.65;;;3.30;99.90;;;;;;5053410;28;20049;-70
2021/12/07 02:24:36;;;;;;;18.33;11.20;;;2.90;99.90;;;;;;5053266;28;20049;-71
2021/12/07 02:27:02;;;;;;;17.55;10.88;;;1.70;99.90;;;;;;5053196;28;20049;-71
2021/12/07 02:29:28;;;;;;;17.75;10.02;;;1.70;99.90;;;;;;5052965;28;20124;-71
2021/12/07 02:31:56;;;;;;;17.77;11.27;;;3.20;99.90;;;;;;5053357;28;20179;-72
2021/12/07 02:34:23;;;;;;;20.40;11.68;;;2.60;99.90;;;;;;5053142;28;20048;-70
2021/12/07 02:36:50;;;;;;;16.88;10.32;;;1.90;99.90;;;;;;5053239;28;20049;-70
2021/12/07 02:39:17;;;;;;;19.33;11.07;;;3.40;99.90;;;;;;5053133;28;20045;-71
2021/12/07 02:41:43;;;;;;;18.00;10.52;;;3.20;99.90;;;;;;5052083;28;20484;-71
2021/12/07 02:44:09;;;;;;;17.38;11.57;;;1.60;99.90;;;;;;5085786;28;20057;-70
2021/12/07 02:46:37;;;;;;;17.08;10.98;;;3.50;99.90;;;;;;5053146;28;20488;-73
2021/12/07 02:49:05;;;;;;;15.02;9.73;;;2.80;99.90;;;;;;5052138;28;20442;-70
2021/12/07 02:51:32;;;;;;;19.33;11.65;;;1.60;99.90;;;;;;5052890;28;20045;-71
2021/12/07 02:53:58;;;;;;;18.45;11.60;;;3.10;99.90;;;;;;5053024;28;20088;-71
2021/12/07 02:56:24;;;;;;;17.25;11.18;;;1.50;99.90;;;;;;5051492;28;20080;-71
2021/12/07 02:58:51;;;;;;;19.65;10.88;;;1.50;99.90;;;;;;5052666;28;20456;-70
2021/12/07 03:01:25;;;;;;;17.33;10.68;;;1.50;99.90;;;;;;5053102;28;20373;-72
2021/12/07 03:06:25;;;;;;;18.13;11.95;;;1.40;99.90;;;;;;5053935;28;20470;-70
2021/12/07 03:27:57;;;;;;;18.63;11.63;;;1.20;99.90;;;;;;5056320;28;20057;-71
2021/12/07 03:30:25;;;;;;;19.55;11.93;;;1.30;99.90;;;;;;5056165;28;20064;-73
2021/12/07 03:32:51;;;;;;;16.20;10.88;;;2.00;99.90;;;;;;5056516;28;20124;-70
2021/12/07 03:35:17;;;;;;;19.00;10.60;;;1.10;99.90;;;;;;5055314;28;20564;-71
2021/12/07 03:37:43;;;;;;;18.70;13.00;;;1.10;99.90;;;;;;5055333;28;20053;-70
2021/12/07 03:40:11;;;;;;;20.15;11.35;;;2.40;99.90;;;;;;5056188;28;20045;-73
2021/12/07 03:42:37;;;;;;;18.00;10.18;;;1.10;99.90;;;;;;5056133;28;20132;-70
2021/12/07 03:45:05;;;;;;;20.92;12.00;;;2.90;99.90;;;;;;5056418;28;20084;-70
2021/12/07 03:47:31;;;;;;;18.05;13.00;;;1.10;99.90;;;;;;5056170;28;20049;-70
2021/12/07 03:49:57;;;;;;;20.92;12.70;;;1.10;99.90;;;;;;5056014;28;20055;-70
2021/12/07 03:52:23;;;;;;;22.00;13.02;;;1.50;99.90;;;;;;5056047;28;20045;-73
2021/12/07 03:54:49;;;;;;;19.88;10.90;;;2.10;99.90;;;;;;5055717;28;20048;-74
2021/12/07 03:57:15;;;;;;;25.60;14.30;;;1.10;99.90;;;;;;5055896;28;20055;-72
2021/12/07 03:59:41;;;;;;;19.42;11.35;;;2.10;99.90;;;;;;5055765;28;20037;-73
2021/12/07 04:02:07;;;;;;;19.45;13.35;;;1.20;99.90;;;;;;5054790;28;20045;-71
2021/12/07 04:04:38;;;;;;;19.50;12.70;;;1.10;99.90;;;;;;5055718;28;20416;-72
2021/12/07 04:07:04;;;;;;;19.83;12.50;;;1.10;99.90;;;;;;5055764;28;20080;-71
2021/12/07 04:09:31;;;;;;;20.17;12.77;;;1.10;99.90;;;;;;5054280;28;20060;-71
2021/12/07 04:11:57;;;;;;;18.20;11.38;;;2.90;99.90;;;;;;5055569;28;20049;-70
2021/12/07 04:14:23;;;;;;;22.33;12.32;;;2.60;99.90;;;;;;5055456;28;20041;-70
2021/12/07 04:16:49;;;;;;;18.50;12.43;;;1.30;99.90;;;;;;5055821;28;20442;-73
2021/12/07 04:19:15;;;;;;;20.27;11.43;;;1.20;99.90;;;;;;5055574;28;20125;-70
2021/12/07 04:21:41;;;;;;;21.88;12.68;;;1.20;99.90;;;;;;5054454;28;20060;-70
2021/12/07 04:24:06;;;;;;;19.88;12.77;;;1.20;99.90;;;;;;5055610;28;20128;-72
2021/12/07 04:26:33;;;;;;;20.55;11.90;;;1.20;99.90;;;;;;5054440;28;20045;-70
2021/12/07 04:28:59;;;;;;;17.45;12.15;;;2.30;99.90;;;;;;5055061;28;20052;-70
2021/12/07 04:31:24;;;;;;;21.90;12.88;;;1.10;99.90;;;;;;5055356;28;20068;-73
2021/12/07 04:33:50;;;;;;;21.33;11.82;;;2.40;99.90;;;;;;5054256;28;20056;-70
2021/12/07 04:36:17;;;;;;;23.10;13.18;;;1.10;99.90;;;;;;5054188;28;20135;-69
2021/12/07 04:38:43;;;;;;;22.38;13.38;;;1.20;99.90;;;;;;5054248;28;20060;-71
2021/12/07 04:41:09;;;;;;;23.52;14.68;;;1.20;99.90;;;;;;5055114;28;20041;-71
2021/12/07 04:43:37;;;;;;;23.52;13.77;;;1.20;99.90;;;;;;5055021;28;20045;-70
2021/12/07 04:46:17;;;;;;;22.90;14.13;;;1.20;99.90;;;;;;5053894;28;20373;-70
2021/12/07 04:59:39;;;;;;;27.30;15.10;;;2.90;99.90;;;;;;5053747;28;20107;-70
2021/12/07 05:02:06;;;;;;;25.60;15.45;;;2.80;99.90;;;;;;5054655;28;20393;-71
2021/12/07 05:04:34;;;;;;;;;;;2.80;99.90;;;;;;5054956;28;20057;-72
2021/12/07 05:07:12;;;;;;;24.08;14.75;;;1.30;99.90;;;;;;5054401;28;20019;-71
2021/12/07 05:14:40;;;;;;;25.55;14.20;;;1.40;99.90;;;;;;5054387;28;20060;-70
2021/12/07 05:17:26;;;;;;;24.65;15.55;;;1.90;99.90;;;;;;5054364;28;20048;-73
2021/12/07 05:25:51;;;;;;;24.83;15.50;;;1.40;99.90;;;;;;5053256;28;20125;-70
2021/12/07 05:39:28;;;;;;;22.80;13.18;;;3.10;99.90;;;;;;5012023;28;20111;-70
2021/12/07 05:41:54;;;;;;;27.95;15.30;;;1.50;99.90;;;;;;4995955;28;20108;-72
2021/12/07 05:44:20;;;;;;;25.60;15.27;;;1.50;99.90;;;;;;4995799;28;20057;-71
2021/12/07 05:46:46;;;;;;;23.88;15.48;;;1.90;99.90;;;;;;5011933;28;20103;-72
2021/12/07 05:49:12;;;;;;;23.45;14.73;;;1.50;99.90;;;;;;5011969;28;20386;-70
2021/12/07 05:51:37;;;;;;;24.25;15.18;;;2.80;99.90;;;;;;5011789;28;20045;-70
2021/12/07 05:54:04;;;;;;;22.75;15.13;;;1.40;99.90;;;;;;5011911;28;20089;-70
2021/12/07 05:56:30;;;;;;;25.00;15.40;;;1.50;99.90;;;;;;4994264;28;20108;-70
2021/12/07 05:58:55;;;;;;;27.65;16.92;;;1.40;99.90;;;;;;5011749;28;20128;-70
2021/12/07 06:01:21;;;;;;;25.45;14.88;;;2.40;99.90;;;;;;5011520;28;20180;-72
2021/12/07 06:03:47;;;;;;;25.52;15.07;;;1.40;99.90;;;;;;5011339;28;20061;-70
2021/12/07 06:06:13;;;;;;;29.30;15.60;;;2.30;99.90;;;;;;4995235;28;20049;-71
2021/12/07 06:08:39;;;;;;;24.17;15.00;;;2.60;99.90;;;;;;4995235;28;20416;-70
2021/12/07 06:11:05;;;;;;;24.45;14.50;;;1.40;99.90;;;;;;4995212;28;20052;-72
2021/12/07 06:13:30;;;;;;;24.25;15.00;;;2.50;99.90;;;;;;4995427;28;20050;-72
2021/12/07 06:16:02;;;;;;;27.48;16.20;;;1.70;99.90;;;;;;5023852;28;20053;-72
2021/12/07 06:18:28;;;;;;;23.48;14.23;;;1.40;99.90;;;;;;5050665;28;20049;-70
2021/12/07 06:20:54;;;;;;;25.90;15.40;;;1.40;99.90;;;;;;5052555;28;20040;-70
2021/12/07 06:23:20;;;;;;;29.20;16.23;;;1.80;99.90;;;;;;5052371;28;20045;-70
2021/12/07 06:25:47;;;;;;;;;;;1.30;99.90;;;;;;5053558;28;20573;-72
2021/12/07 06:28:13;;;;;;;28.08;15.07;;;0.60;99.90;;;;;;5053527;28;19968;-73
2021/12/07 06:30:39;;;;;;;22.65;14.55;;;2.00;99.90;;;;;;5052372;28;20052;-70
2021/12/07 06:33:04;;;;;;;23.77;14.18;;;2.50;99.90;;;;;;5052969;28;20041;-71
2021/12/07 06:35:30;;;;;;;28.73;16.08;;;1.20;99.90;;;;;;5053234;28;20136;-70
2021/12/07 06:37:56;;;;;;;24.73;13.82;;;1.20;99.90;;;;;;5053994;28;20052;-71
2021/12/07 06:40:21;;;;;;;29.50;15.77;;;3.00;99.90;;;;;;5055343;28;20464;-72
2021/12/07 06:42:47;;;;;;;25.42;15.35;;;2.70;99.90;;;;;;5036900;28;20662;-70
2021/12/07 06:45:13;;;;;;;23.85;15.57;;;2.30;99.90;;;;;;5037237;28;20054;-70
2021/12/07 06:47:39;;;;;;;26.42;14.93;;;1.20;99.90;;;;;;5048928;28;20041;-73
2021/12/07 06:50:07;;;;;;;25.75;15.02;;;2.70;99.90;;;;;;5055608;28;20053;-70
2021/12/07 06:52:33;;;;;;;32.33;16.48;;;1.20;99.90;;;;;;5037923;28;20061;-70
2021/12/07 06:54:59;;;;;;;24.08;14.23;;;1.10;99.90;;;;;;5036053;28;20053;-70
2021/12/07 06:57:26;;;;;;;25.92;15.38;;;1.10;99.90;;;;;;5037114;28;20057;-70
2021/12/07 06:59:54;;;;;;;23.92;14.55;;;1.10;99.90;;;;;;5036935;28;20116;-73
2021/12/07 07:02:20;;;;;;;24.90;14.55;;;1.70;99.90;;;;;;5041555;28;20504;-70
2021/12/07 07:04:46;;;;;;;27.20;15.52;;;1.80;99.90;;;;;;5070619;28;20052;-72
2021/12/07 07:07:12;;;;;;;24.85;15.20;;;1.10;99.90;;;;;;5041774;28;20080;-73
2021/12/07 07:09:37;;;;;;;24.15;15.35;;;1.00;99.90;;;;;;5056031;28;20539;-71
2021/12/07 07:12:04;;;;;;;26.42;14.48;;;1.00;99.90;;;;;;5055892;28;20072;-71
2021/12/07 07:14:29;;;;;;;29.38;13.32;;;1.00;99.90;;;;;;5042815;28;20042;-71
2021/12/07 07:16:55;;;;;;;25.13;14.77;;;1.00;99.90;;;;;;5045450;28;20056;-73
2021/12/07 07:19:21;;;;;;;26.30;14.13;;;2.60;99.90;;;;;;5055782;28;20049;-70
2021/12/07 07:21:47;;;;;;;24.17;14.05;;;1.00;99.90;;;;;;5055950;28;20047;-71
2021/12/07 07:24:12;;;;;;;22.67;12.93;;;1.00;99.90;;;;;;5056712;28;20091;-70
2021/12/07 07:26:38;;;;;;;20.85;13.77;;;1.00;99.90;;;;;;5056077;28;20238;-70
2021/12/07 07:29:04;;;;;;;22.60;12.30;;;1.90;99.90;;;;;;5057146;28;20474;-73
2021/12/07 07:31:30;;;;;;;20.30;13.07;;;1.10;99.90;;;;;;5051718;28;20047;-71
2021/12/07 07:33:56;;;;;;;24.95;14.35;;;2.00;99.90;;;;;;5056308;28;20060;-71
2021/12/07 07:36:22;;;;;;;23.70;13.68;;;1.10;99.90;;;;;;5056145;28;20057;-70
2021/12/07 07:38:48;;;;;;;29.33;15.35;;;1.80;99.90;;;;;;5056420;28;20110;-71
2021/12/07 07:41:14;;;;;;;23.02;13.60;;;1.20;99.90;;;;;;5056249;28;20124;-71
2021/12/07 07:43:40;;;;;;;25.88;13.77;;;2.90;99.90;;;;;;5054980;28;20087;-73
2021/12/07 07:46:06;;;;;;;33.63;21.85;;;1.20;99.90;;;;;;5053593;28;20057;-70
2021/12/07 07:48:31;;;;;;;23.08;14.07;;;1.80;99.90;;;;;;5053750;28;20049;-70
2021/12/07 07:50:57;;;;;;;22.20;12.45;;;1.20;99.90;;;;;;5054754;28;20400;-73
2021/12/07 07:53:23;;;;;;;24.25;12.20;;;1.20;99.90;;;;;;5054384;28;20037;-71
2021/12/07 07:55:50;;;;;;;46.53;23.05;;;1.20;99.90;;;;;;5055784;28;20500;-71
2021/12/07 07:58:18;;;;;;;32.78;17.10;;;1.60;99.90;;;;;;5056266;28;20053;-71
2021/12/07 08:00:45;;;;;;;19.77;13.20;;;1.30;99.90;;;;;;5055803;28;20048;-71
2021/12/07 08:03:10;;;;;;;;;;;3.20;99.90;;;;;;5060958;28;20504;-70
2021/12/07 08:05:37;;;;;;;17.27;9.15;;;1.40;99.90;;;;;;5069090;28;19928;-74
2021/12/07 08:08:03;;;;;;;21.52;12.48;;;2.40;99.90;;;;;;5061736;28;20049;-70
2021/12/07 08:10:29;;;;;;;21.27;11.48;;;1.50;99.90;;;;;;5055020;28;20045;-70
2021/12/07 08:13:00;;;;;;;24.30;13.13;;;2.80;99.90;;;;;;5055317;28;20043;-70
2021/12/07 08:15:27;;;;;;;20.63;10.43;;;2.20;99.90;;;;;;5055341;28;20052;-72
2021/12/07 08:17:54;;;;;;;24.38;13.15;;;1.50;99.90;;;;;;5055255;28;20403;-70
2021/12/07 08:20:21;;;;;;;22.42;11.57;;;2.10;99.90;;;;;;5055236;28;20557;-70
2021/12/07 08:22:47;;;;;;;25.20;12.63;;;2.10;99.90;;;;;;5055035;28;20053;-70
2021/12/07 08:25:13;;;;;;;19.13;10.70;;;2.80;99.90;;;;;;5049805;28;20388;-70
2021/12/07 08:27:39;;;;;;;;;;;2.50;99.90;;;;;;5055065;28;20496;-70
2021/12/07 08:30:07;;;;;;;18.48;10.80;;;3.30;99.90;;;;;;5054881;28;19928;-71
2021/12/07 08:32:33;;;;;;;19.35;11.40;;;1.70;99.90;;;;;;5047173;28;20055;-71
2021/12/07 08:35:00;;;;;;;;;;;2.60;99.90;;;;;;5049856;28;20047;-71
2021/12/07 08:37:25;;;;;;;20.50;10.75;;;2.30;99.90;;;;;;5051841;28;19967;-72
2021/12/07 08:39:51;;;;;;;28.13;18.90;;;1.70;99.90;;;;;;5049616;28;20049;-71
2021/12/07 08:42:19;;;;;;;27.52;16.50;;;3.60;99.90;;;;;;5034521;28;20054;-72
2021/12/07 08:44:46;;;;;;;19.48;10.68;;;3.10;99.90;;;;;;5048172;28;20044;-71
2021/12/07 08:47:11;;;;;;;;;;;1.70;99.90;;;;;;5063130;28;20131;-72
2021/12/07 08:49:37;;;;;;;19.88;10.57;;;1.80;99.90;;;;;;5061143;28;20020;-73
2021/12/07 08:52:03;;;;;;;20.02;10.93;;;1.70;99.90;;;;;;5045404;28;20106;-71
2021/12/07 08:59:39;;;;;;;21.55;10.60;;;1.80;99.90;;;;;;5055024;28;20099;-70
2021/12/07 09:00:08;;;;;;;21.50;10.02;;;1.80;99.90;;;;;;5043928;28;20041;-71
2021/12/07 09:02:34;;;;;;;24.38;11.32;;;1.80;99.90;;;;;;5054596;28;20037;-70
2021/12/07 09:05:00;;;;;;;19.45;11.82;;;1.80;99.90;;;;;;5069010;28;20080;-70
2021/12/07 09:07:26;;;;;;;20.60;11.18;;;1.80;99.90;;;;;;5057272;28;20040;-69
2021/12/07 09:09:52;;;;;;;22.45;10.20;;;1.80;99.90;;;;;;5050176;28;20053;-69
2021/12/07 09:12:19;;;;;;;22.27;12.25;;;1.90;99.90;;;;;;5051902;28;20048;-69
2021/12/07 09:14:46;;;;;;;15.57;10.05;;;1.90;99.90;;;;;;5046597;28;20515;-72
2021/12/07 09:17:13;;;;;;;;;;;2.80;99.90;;;;;;5050339;28;20073;-72
2021/12/07 09:19:40;;;;;;;20.25;11.23;;;2.80;99.90;;;;;;5046745;28;20355;-69
2021/12/07 09:22:07;;;;;;;19.35;10.80;;;3.00;99.90;;;;;;5054142;28;20106;-72
2021/12/07 09:24:34;;;;;;;23.52;10.63;;;2.00;99.90;;;;;;5065695;28;20389;-70
2021/12/07 09:27:00;;;;;;;18.38;9.70;;;2.00;99.90;;;;;;5034322;28;20049;-73
2021/12/07 09:29:26;;;;;;;;;;;2.00;99.90;;;;;;5053209;28;20041;-72
2021/12/07 09:31:52;;;;;;;22.67;10.18;;;2.70;99.90;;;;;;5053338;28;19921;-72
2021/12/07 09:34:18;;;;;;;21.17;10.48;;;2.70;99.90;;;;;;5051665;28;20045;-73
2021/12/07 09:36:45;;;;;;;18.67;10.55;;;2.10;99.90;;;;;;5052636;28;20055;-71
2021/12/07 09:39:14;;;;;;;18.08;9.93;;;3.00;99.90;;;;;;5051203;28;20040;-72
2021/12/07 09:41:41;;;;;;;22.42;10.52;;;2.20;99.90;;;;;;5035957;28;20060;-70
2021/12/07 09:44:08;;;;;;;17.45;9.32;;;2.90;99.90;;;;;;5053706;28;20041;-71
2021/12/07 09:46:35;;;;;;;23.02;9.48;;;2.30;99.90;;;;;;5053703;28;20049;-70
2021/12/07 09:49:03;;;;;;;17.10;9.07;;;2.40;99.90;;;;;;5050693;28;20484;-72
2021/12/07 09:51:29;;;;;;;15.07;9.40;;;3.80;99.90;;;;;;5053050;28;20377;-70
2021/12/07 09:53:58;;;;;;;20.30;9.60;;;2.40;99.90;;;;;;5051838;28;20090;-70
2021/12/07 09:56:26;;;;;;;15.88;8.48;;;2.40;99.90;;;;;;5053617;28;20055;-70
2021/12/07 09:58:54;;;;;;;24.90;9.80;;;2.50;99.90;;;;;;5080478;28;20102;-70
2021/12/07 10:01:23;;;;;;;19.05;8.55;;;2.50;99.90;;;;;;5056186;28;20498;-71
2021/12/07 10:03:49;;;;;;;15.55;8.00;;;2.50;99.90;;;;;;5068010;28;20037;-72
2021/12/07 10:06:15;;;;;;;19.70;9.63;;;3.40;99.90;;;;;;5053487;28;20051;-72
2021/12/07 10:08:41;;;;;;;;;;;3.40;99.90;;;;;;5070152;28;20136;-70
2021/12/07 10:11:09;;;;;;;16.75;9.50;;;3.00;99.90;;;;;;5073398;28;20006;-70
2021/12/07 10:13:41;;;;;;;19.55;10.55;;;2.70;99.90;;;;;;5073207;28;20492;-70
2021/12/07 10:16:08;;;;;;;20.30;8.77;;;2.70;99.90;;;;;;5056223;28;20075;-71
2021/12/07 10:18:37;;;;;;;15.07;7.63;;;2.80;99.90;;;;;;5033230;28;20084;-70
2021/12/07 10:21:38;;;;;;;16.00;8.10;;;4.20;99.90;;;;;;5033375;28;20081;-71
2021/12/07 10:24:11;;;;;;;16.95;8.45;;;2.90;99.90;;;;;;5033224;28;20081;-69
2021/12/07 10:26:40;;;;;;;15.77;8.85;;;3.60;99.90;;;;;;5032258;28;20099;-71
2021/12/07 10:29:20;;;;;;;18.33;9.98;;;3.60;99.90;;;;;;5033451;28;20124;-68
2021/12/07 10:31:52;;;;;;;20.98;12.80;;;3.60;99.90;;;;;;5031993;28;20038;-69
2021/12/07 10:34:22;;;;;;;16.02;7.82;;;3.00;99.90;;;;;;5033188;28;20110;-71
2021/12/07 10:36:50;;;;;;;15.60;8.80;;;4.00;99.90;;;;;;5031773;28;20428;-69
2021/12/07 10:39:18;;;;;;;18.17;7.88;;;4.20;99.90;;;;;;5033241;28;20565;-69
2021/12/07 10:41:47;;;;;;;17.58;9.55;;;4.10;99.90;;;;;;5033129;28;20053;-70
2021/12/07 10:44:21;;;;;;;14.65;8.98;;;3.70;99.90;;;;;;5032196;28;20061;-70
2021/12/07 10:46:58;;;;;;;17.10;11.15;;;3.20;99.90;;;;;;5033102;28;20443;-70
2021/12/07 10:49:33;;;;;;;19.27;11.27;;;3.30;99.90;;;;;;5032965;28;20057;-71
2021/12/07 10:52:18;;;;;;;17.02;8.38;;;3.30;99.90;;;;;;5031883;28;20110;-71
2021/12/07 10:55:18;;;;;;;18.75;9.63;;;3.30;99.90;;;;;;5033078;28;20063;-71
2021/12/07 10:58:00;;;;;;;13.88;8.38;;;3.40;99.90;;;;;;5032897;28;20119;-70
2021/12/07 11:00:44;;;;;;;14.98;8.18;;;3.40;99.90;;;;;;5064604;28;20095;-69
2021/12/07 11:03:13;;;;;;;16.27;7.63;;;4.80;99.90;;;;;;5032940;28;20124;-69
2021/12/07 11:05:51;;;;;;;14.15;7.53;;;3.50;99.90;;;;;;5065336;28;20111;-69
2021/12/07 11:08:20;;;;;;;14.60;7.78;;;3.50;99.90;;;;;;5031598;28;20046;-69
2021/12/07 11:10:49;;;;;;;17.35;7.43;;;3.50;99.90;;;;;;5065013;28;20049;-71
2021/12/07 11:13:49;;;;;;;17.90;8.45;;;3.70;99.90;;;;;;5031665;28;20045;-68
2021/12/07 11:16:17;;;;;;;17.60;9.65;;;3.70;99.90;;;;;;5031696;28;20046;-71
2021/12/07 11:18:48;;;;;;;15.55;7.45;;;3.70;99.90;;;;;;5032623;28;20493;-68
2021/12/07 11:21:17;;;;;;;19.17;8.55;;;3.70;99.90;;;;;;5031823;28;20053;-69
2021/12/07 11:23:48;;;;;;;13.13;7.50;;;3.80;99.90;;;;;;5032646;28;20049;-70
2021/12/07 11:31:45;;;;;;;15.80;7.50;;;3.90;99.90;;;;;;5035005;28;20049;-69
2021/12/07 11:34:26;;;;;;;18.83;13.57;;;4.00;99.90;;;;;;5036492;28;20048;-68
2021/12/07 11:37:03;;;;;;;13.43;8.90;;;4.00;99.90;;;;;;5035105;28;20044;-69
2021/12/07 11:39:31;;;;;;;;;;;4.10;99.90;;;;;;5036709;28;20081;-67
2021/12/07 11:42:01;;;;;;;21.60;9.57;;;4.70;99.90;;;;;;5051603;28;20011;-70
2021/12/07 11:44:28;;;;;;;16.92;9.30;;;4.10;99.90;;;;;;5068857;28;20046;-69
2021/12/07 11:46:55;;;;;;;18.20;7.60;;;4.20;99.90;;;;;;5036269;28;20099;-68
2021/12/07 11:49:27;;;;;;;19.08;10.18;;;5.30;99.90;;;;;;5035195;28;20476;-68
2021/12/07 11:51:56;;;;;;;15.52;7.78;;;4.30;99.90;;;;;;5068201;28;20092;-69
2021/12/07 11:54:26;;;;;;;11.27;6.28;;;4.40;99.90;;;;;;5035926;28;20049;-69
2021/12/07 11:56:53;;;;;;;12.93;6.40;;;4.40;99.90;;;;;;5035870;28;20057;-71
2021/12/07 11:59:19;;;;;;;20.17;7.20;;;5.00;99.90;;;;;;5051569;28;20060;-69
2021/12/07 12:01:46;;;;;;;12.57;6.28;;;5.60;99.90;;;;;;5068278;28;20053;-69
2021/12/07 12:04:14;;;;;;;10.93;7.68;;;4.50;99.90;;;;;;5035980;28;20053;-68
2021/12/07 12:06:42;;;;;;;11.52;5.25;;;4.60;99.90;;;;;;5035669;28;20049;-69
2021/12/07 12:09:09;;;;;;;13.55;5.43;;;4.60;99.90;;;;;;5035691;28;20045;-68
2021/12/07 12:11:56;;;;;;;13.15;6.10;;;4.60;99.90;;;;;;5067920;28;20050;-69
2021/12/07 12:14:49;;;;;;;12.07;5.70;;;4.70;99.90;;;;;;5035631;28;20049;-69
2021/12/07 12:17:30;;;;;;;12.00;5.22;;;4.80;99.90;;;;;;5035569;28;20037;-69
2021/12/07 12:20:05;;;;;;;10.68;5.65;;;5.70;99.90;;;;;;5035705;28;20042;-72
2021/12/07 12:22:46;;;;;;;10.05;5.93;;;4.90;99.90;;;;;;5035516;28;20045;-69
2021/12/07 12:25:16;;;;;;;19.10;5.18;;;4.90;99.90;;;;;;5035483;28;20053;-69
2021/12/07 12:27:45;;;;;;;16.17;5.60;;;5.00;99.90;;;;;;5035315;28;20046;-68
2021/12/07 12:30:28;;;;;;;11.70;6.20;;;6.10;99.90;;;;;;5067786;28;20163;-69
2021/12/07 12:33:10;;;;;;;9.10;4.80;;;5.00;99.90;;;;;;5034435;28;20103;-68
2021/12/07 12:35:44;;;;;;;14.20;6.15;;;6.20;99.90;;;;;;5035272;28;20046;-69
2021/12/07 12:38:27;;;;;;;12.10;5.32;;;5.10;99.90;;;;;;5066896;28;20045;-69
2021/12/07 12:40:58;;;;;;;12.25;5.57;;;5.10;99.90;;;;;;5050759;28;20052;-68
2021/12/07 12:43:49;;;;;;;10.80;5.07;;;5.70;99.90;;;;;;5035165;28;20128;-70
2021/12/07 12:46:18;;;;;;;9.35;5.10;;;5.20;99.90;;;;;;5067268;28;20484;-68
2021/12/07 12:48:50;;;;;;;11.73;5.35;;;5.90;99.90;;;;;;5050636;28;20057;-69
2021/12/07 12:51:18;;;;;;;7.57;4.30;;;5.20;99.90;;;;;;5049957;28;20484;-69
2021/12/07 12:53:45;;;;;;;12.40;5.45;;;6.30;99.90;;;;;;5054354;28;20102;-69
2021/12/07 12:56:21;;;;;;;10.07;5.20;;;5.20;99.90;;;;;;5074589;28;20060;-70
2021/12/07 12:58:53;;;;;;;9.70;4.07;;;5.20;99.90;;;;;;5073800;28;20049;-69
2021/12/07 13:01:20;;;;;;;11.45;5.35;;;5.20;99.90;;;;;;5074698;28;20106;-71
2021/12/07 13:04:10;;;;;;;10.48;3.92;;;5.60;99.90;;;;;;5074538;28;20082;-70
2021/12/07 13:07:23;;;;;;;10.93;5.38;;;5.20;99.90;;;;;;5074583;28;20040;-68
2021/12/07 13:09:45;;;;;;;13.82;6.63;;;5.10;99.90;;;;;;5071493;28;20044;-71
2021/12/07 13:12:18;;;;;;;14.77;6.15;;;5.90;99.90;;;;;;5050805;28;20071;-69
2021/12/07 13:14:50;;;;;;;13.15;4.85;;;5.10;99.90;;;;;;5054331;28;20048;-70
2021/12/07 13:17:24;;;;;;;12.95;4.72;;;5.00;99.90;;;;;;5054422;28;20056;-68
2021/12/07 13:20:08;;;;;;;9.02;4.55;;;5.10;99.90;;;;;;5054256;28;20045;-71
2021/12/07 13:22:36;;;;;;;11.40;5.55;;;5.10;99.90;;;;;;5053136;28;20127;-68
2021/12/07 13:25:08;;;;;;;14.70;6.70;;;5.30;99.90;;;;;;5054417;28;20416;-69
2021/12/07 13:27:36;;;;;;;13.20;5.40;;;5.10;99.90;;;;;;5053358;28;20049;-68
2021/12/07 13:30:05;;;;;;;9.18;5.13;;;5.10;99.90;;;;;;5053988;28;20131;-71
2021/12/07 13:32:31;;;;;;;14.25;5.97;;;5.10;99.90;;;;;;5054092;28;20059;-68
2021/12/07 13:35:04;;;;;;;13.68;6.22;;;5.00;99.90;;;;;;5053983;28;20584;-68
2021/12/07 13:37:48;;;;;;;11.48;6.35;;;5.10;99.90;;;;;;5056085;28;20044;-70
2021/12/07 13:40:22;;;;;;;17.35;5.90;;;5.80;99.90;;;;;;5050606;28;20041;-68
2021/12/07 13:42:53;;;;;;;10.23;6.10;;;5.00;99.90;;;;;;5053721;28;20579;-69
2021/12/07 13:45:21;;;;;;;12.38;6.40;;;5.00;99.90;;;;;;5053404;28;20372;-70
2021/12/07 13:47:52;;;;;;;14.10;6.22;;;6.00;99.90;;;;;;5053731;28;20174;-69
2021/12/07 13:50:23;;;;;;;10.73;5.60;;;6.00;99.90;;;;;;5053399;28;20040;-68
2021/12/07 13:52:51;;;;;;;11.13;6.60;;;6.40;99.90;;;;;;5053688;28;20048;-68
2021/12/07 13:55:20;;;;;;;9.90;6.32;;;5.40;99.90;;;;;;5052521;28;20041;-69
2021/12/07 13:57:53;;;;;;;16.95;6.22;;;4.90;99.90;;;;;;5053330;28;20064;-69
2021/12/07 14:00:24;;;;;;;11.68;6.05;;;4.90;99.90;;;;;;5053427;28;20040;-68
2021/12/07 14:03:00;;;;;;;12.48;5.35;;;4.90;99.90;;;;;;5053681;28;20484;-68
2021/12/07 14:05:29;;;;;;;12.15;6.05;;;4.90;99.90;;;;;;5053688;28;20045;-68
2021/12/07 14:08:00;;;;;;;12.95;6.65;;;4.80;99.90;;;;;;5053489;28;20049;-68
2021/12/07 14:10:29;;;;;;;11.68;6.70;;;4.90;99.90;;;;;;5052264;28;20120;-69
2021/12/07 14:12:56;;;;;;;17.40;6.95;;;6.20;99.90;;;;;;5052087;28;20049;-70
2021/12/07 14:15:25;;;;;;;11.27;5.90;;;4.80;99.90;;;;;;5053474;28;20052;-70
2021/12/07 14:18:00;;;;;;;15.93;6.95;;;4.80;99.90;;;;;;5053464;28;20466;-69
2021/12/07 14:20:42;;;;;;;15.40;6.95;;;5.30;99.90;;;;;;5052371;28;20087;-69
2021/12/07 14:23:20;;;;;;;16.65;7.32;;;4.80;99.90;;;;;;5052164;28;20128;-69
2021/12/07 14:26:07;;;;;;;11.85;6.50;;;4.80;99.90;;;;;;5053455;28;20045;-69
2021/12/07 14:28:41;;;;;;;13.40;6.30;;;4.70;99.90;;;;;;5053293;28;20571;-68
2021/12/07 14:31:11;;;;;;;14.85;5.80;;;4.70;99.90;;;;;;5053140;28;20132;-69
2021/12/07 14:33:49;;;;;;;12.68;6.07;;;4.70;99.90;;;;;;5051976;28;20454;-69
2021/12/07 14:36:31;;;;;;;11.40;6.30;;;4.70;99.90;;;;;;5053198;28;20091;-69
2021/12/07 14:39:12;;;;;;;13.25;6.68;;;5.30;99.90;;;;;;5053136;28;20060;-71